createdAt,value
2022-08-22T00:00:19.152Z,38.84
2022-08-22T00:02:59.713Z,36.86
2022-08-22T00:03:02.035Z,36.95
2022-08-22T00:03:10.012Z,37.32
2022-08-22T00:03:15.318Z,38.94
2022-08-22T00:05:54.532Z,39.02
2022-08-22T00:08:33.836Z,39.03
2022-08-22T00:11:29.374Z,39.32
2022-08-22T00:14:01.991Z,39.20
2022-08-22T00:16:34.329Z,39.25
2022-08-22T00:19:08.291Z,39.03
2022-08-22T00:21:47.777Z,39.35
2022-08-22T00:24:21.068Z,39.49
2022-08-22T00:26:53.971Z,39.55
2022-08-22T00:29:27.766Z,39.65
2022-08-22T00:32:15.802Z,39.67
2022-08-22T00:34:51.235Z,39.75
2022-08-22T00:37:27.504Z,39.95
2022-08-22T00:40:09.075Z,39.92
2022-08-22T00:42:54.858Z,40.04
2022-08-22T00:45:30.879Z,40.01
2022-08-22T00:48:03.975Z,39.96
2022-08-22T00:50:49.444Z,40.25
2022-08-22T00:53:31.948Z,40.33
2022-08-22T00:56:17.488Z,40.40
2022-08-22T00:59:23.415Z,40.84
2022-08-22T01:02:09.934Z,40.93
2022-08-22T01:04:55.278Z,41.78
2022-08-22T01:07:25.080Z,42.03
2022-08-22T01:10:24.070Z,42.52
2022-08-22T01:13:02.262Z,42.33
2022-08-22T01:15:30.709Z,42.30
2022-08-22T01:18:09.520Z,43.38
2022-08-22T01:20:55.595Z,43.30
2022-08-22T01:23:37.688Z,43.24
2022-08-22T01:26:22.754Z,43.33
2022-08-22T01:29:28.373Z,43.28
2022-08-22T01:32:08.001Z,43.74
2022-08-22T01:34:40.910Z,44.23
2022-08-22T01:37:33.859Z,44.05
2022-08-22T01:40:05.800Z,44.36
2022-08-22T01:42:35.395Z,44.33
2022-08-22T01:45:05.190Z,44.40
2022-08-22T01:47:37.490Z,44.50
2022-08-22T01:50:23.232Z,44.15
2022-08-22T01:53:02.466Z,44.30
2022-08-22T01:55:29.361Z,44.56
2022-08-22T01:57:58.934Z,44.75
2022-08-22T02:00:35.207Z,44.82
2022-08-22T02:03:03.519Z,44.95
2022-08-22T02:05:37.470Z,45.05
2022-08-22T02:08:23.388Z,44.80
2022-08-22T02:11:02.453Z,44.89
2022-08-22T02:13:29.332Z,45.04
2022-08-22T02:16:27.322Z,45.14
2022-08-22T02:19:01.002Z,45.47
2022-08-22T02:21:47.257Z,45.60
2022-08-22T02:24:17.054Z,45.75
2022-08-22T02:27:04.519Z,45.87
2022-08-22T02:29:31.297Z,46.04
2022-08-22T02:32:01.647Z,46.02
2022-08-22T02:34:44.087Z,45.94
2022-08-22T02:37:16.961Z,45.91
2022-08-22T02:39:43.818Z,46.08
2022-08-22T02:42:16.491Z,46.10
2022-08-22T02:44:48.349Z,45.85
2022-08-22T02:47:16.693Z,45.70
2022-08-22T02:49:47.492Z,45.73
2022-08-22T02:52:34.202Z,45.83
2022-08-22T02:55:06.502Z,45.86
2022-08-22T02:57:39.307Z,45.75
2022-08-22T03:00:39.072Z,45.60
2022-08-22T03:03:07.152Z,45.58
2022-08-22T03:05:36.572Z,45.94
2022-08-22T03:08:05.752Z,45.87
2022-08-22T03:10:44.411Z,45.70
2022-08-22T03:13:17.089Z,45.67
2022-08-22T03:15:49.250Z,45.65
2022-08-22T03:18:31.498Z,45.72
2022-08-22T03:21:00.514Z,45.82
2022-08-22T03:23:39.468Z,45.89
2022-08-22T03:26:29.224Z,45.83
2022-08-22T03:29:31.256Z,45.81
2022-08-22T03:32:24.252Z,45.79
2022-08-22T03:34:58.433Z,45.65
2022-08-22T03:37:40.853Z,45.59
2022-08-22T03:40:19.860Z,45.59
2022-08-22T03:42:52.656Z,45.68
2022-08-22T03:45:38.677Z,45.73
2022-08-22T03:48:17.924Z,45.63
2022-08-22T03:51:03.540Z,45.49
2022-08-22T03:53:33.593Z,45.36
2022-08-22T03:56:09.556Z,45.43
2022-08-22T03:58:45.604Z,45.43
2022-08-22T04:01:35.879Z,45.52
2022-08-22T04:04:05.802Z,45.46
2022-08-22T04:06:41.600Z,45.66
2022-08-22T04:09:11.380Z,45.68
2022-08-22T04:11:57.792Z,45.66
2022-08-22T04:14:44.299Z,45.62
2022-08-22T04:17:11.201Z,45.66
2022-08-22T04:19:54.336Z,45.67
2022-08-22T04:22:26.018Z,46.02
2022-08-22T04:24:55.992Z,46.37
2022-08-22T04:27:40.670Z,46.41
2022-08-22T04:30:13.721Z,46.48
2022-08-22T04:33:00.182Z,46.34
2022-08-22T04:35:31.861Z,46.37
2022-08-22T04:38:01.904Z,46.33
2022-08-22T04:40:28.705Z,46.21
2022-08-22T04:42:59.722Z,46.15
2022-08-22T04:45:29.872Z,46.25
2022-08-22T04:48:01.633Z,46.25
2022-08-22T04:50:57.960Z,46.46
2022-08-22T04:53:27.458Z,46.89
2022-08-22T04:55:54.276Z,47.33
2022-08-22T04:58:23.889Z,47.21
2022-08-22T05:00:56.975Z,46.91
2022-08-22T05:03:24.368Z,46.88
2022-08-22T05:05:51.768Z,46.50
2022-08-22T05:08:21.553Z,46.01
2022-08-22T05:10:48.471Z,45.65
2022-08-22T05:13:30.318Z,45.16
2022-08-22T05:15:59.027Z,45.03
2022-08-22T05:18:29.520Z,44.78
2022-08-22T05:20:57.601Z,44.68
2022-08-22T05:23:27.725Z,44.27
2022-08-22T05:25:56.623Z,43.85
2022-08-22T05:28:54.610Z,43.54
2022-08-22T05:31:24.044Z,42.97
2022-08-22T05:33:52.304Z,42.79
2022-08-22T05:36:38.531Z,42.65
2022-08-22T05:39:10.957Z,42.58
2022-08-22T05:41:38.867Z,42.58
2022-08-22T05:44:07.584Z,42.87
2022-08-22T05:46:42.455Z,43.02
2022-08-22T05:49:31.990Z,42.88
2022-08-22T05:52:04.848Z,43.15
2022-08-22T05:54:36.269Z,43.50
2022-08-22T05:57:11.690Z,43.67
2022-08-22T05:59:38.924Z,43.87
2022-08-22T06:02:22.049Z,43.86
2022-08-22T06:04:51.908Z,44.15
2022-08-22T06:07:19.293Z,44.08
2022-08-22T06:09:46.250Z,44.07
2022-08-22T06:12:29.609Z,43.90
2022-08-22T06:14:59.525Z,43.89
2022-08-22T06:17:31.714Z,43.66
2022-08-22T06:19:58.634Z,43.82
2022-08-22T06:22:26.449Z,43.69
2022-08-22T06:24:55.212Z,43.48
2022-08-22T06:27:23.386Z,43.63
2022-08-22T06:29:58.467Z,43.63
2022-08-22T06:32:38.238Z,43.44
2022-08-22T06:35:16.587Z,43.63
2022-08-22T06:37:45.182Z,43.63
2022-08-22T06:40:20.078Z,43.56
2022-08-22T06:42:49.629Z,43.73
2022-08-22T06:45:17.994Z,43.31
2022-08-22T06:47:50.220Z,42.40
2022-08-22T06:50:23.783Z,41.90
2022-08-22T06:52:58.572Z,41.33
2022-08-22T06:55:26.903Z,40.73
2022-08-22T06:57:55.153Z,40.86
2022-08-22T07:00:22.179Z,40.70
2022-08-22T07:02:59.378Z,40.42
2022-08-22T07:05:29.996Z,39.72
2022-08-22T07:07:57.270Z,39.03
2022-08-22T07:10:24.502Z,39.27
2022-08-22T07:12:52.561Z,39.12
2022-08-22T07:15:36.700Z,39.13
2022-08-22T07:18:24.959Z,38.89
2022-08-22T07:20:56.331Z,38.57
2022-08-22T07:23:34.071Z,38.29
2022-08-22T07:26:04.022Z,38.28
2022-08-22T07:28:36.833Z,38.15
2022-08-22T07:31:35.296Z,37.65
2022-08-22T07:34:15.069Z,37.57
2022-08-22T07:36:50.179Z,37.57
2022-08-22T07:39:22.674Z,37.44
2022-08-22T07:41:59.728Z,36.98
2022-08-22T07:44:28.945Z,36.85
2022-08-22T07:47:01.233Z,36.85
2022-08-22T07:49:32.701Z,37.34
2022-08-22T07:52:01.183Z,37.24
2022-08-22T07:54:31.909Z,37.12
2022-08-22T07:57:02.704Z,36.52
2022-08-22T07:59:29.903Z,36.38
2022-08-22T08:01:58.554Z,36.02
2022-08-22T08:04:29.114Z,35.42
2022-08-22T08:06:56.840Z,35.39
2022-08-22T08:09:23.975Z,35.42
2022-08-22T08:11:51.822Z,34.85
2022-08-22T08:14:20.073Z,34.64
2022-08-22T08:16:56.748Z,34.46
2022-08-22T08:19:24.957Z,34.38
2022-08-22T08:21:53.709Z,33.38
2022-08-22T08:24:25.754Z,33.54
2022-08-22T08:27:13.366Z,33.28
2022-08-22T08:29:45.793Z,33.46
2022-08-22T08:32:12.898Z,33.20
2022-08-22T08:34:42.746Z,32.79
2022-08-22T08:37:12.999Z,32.12
2022-08-22T08:39:50.942Z,32.10
2022-08-22T08:42:41.309Z,32.27
2022-08-22T08:45:17.395Z,32.03
2022-08-22T08:47:52.745Z,32.40
2022-08-22T08:50:31.968Z,32.01
2022-08-22T08:53:24.104Z,32.20
2022-08-22T08:55:54.162Z,31.52
2022-08-22T08:58:28.184Z,30.91
2022-08-22T09:01:02.296Z,31.31
2022-08-22T09:04:07.159Z,31.15
2022-08-22T09:07:02.475Z,31.97
2022-08-22T09:09:32.095Z,32.74
2022-08-22T09:12:20.310Z,32.74
2022-08-22T09:15:14.484Z,32.23
2022-08-22T09:17:48.581Z,31.79
2022-08-22T09:20:35.874Z,31.15
2022-08-22T09:23:18.260Z,30.68
2022-08-22T09:25:51.455Z,30.58
2022-08-22T09:28:29.466Z,30.92
2022-08-22T09:34:24.159Z,29.74
2022-08-22T09:37:08.070Z,29.39
2022-08-22T09:42:44.882Z,28.00
2022-08-22T09:45:37.009Z,27.17
2022-08-22T09:48:26.634Z,26.72
2022-08-22T09:52:33.263Z,26.25
2022-08-22T09:54:05.430Z,26.47
2022-08-22T09:56:50.866Z,25.85
2022-08-22T09:59:40.835Z,25.06
2022-08-22T10:02:58.254Z,24.89
2022-08-22T10:05:56.888Z,25.33
2022-08-22T10:08:37.829Z,24.71
2022-08-22T10:11:11.369Z,25.36
2022-08-22T10:13:57.305Z,25.45
2022-08-22T10:16:33.989Z,25.23
2022-08-22T10:19:23.028Z,24.79
2022-08-22T10:21:50.585Z,24.09
2022-08-22T10:24:25.492Z,23.29
2022-08-22T10:26:59.111Z,23.39
2022-08-22T10:29:40.385Z,22.82
2022-08-22T10:32:14.394Z,22.28
2022-08-22T10:34:43.459Z,22.15
2022-08-22T10:38:04.067Z,21.17
2022-08-22T10:40:41.628Z,21.34
2022-08-22T10:43:29.225Z,21.42
2022-08-22T10:46:12.692Z,22.18
2022-08-22T10:48:50.879Z,22.15
2022-08-22T10:51:24.122Z,21.72
2022-08-22T10:53:59.587Z,21.54
2022-08-22T10:56:30.028Z,21.78
2022-08-22T10:59:06.602Z,21.62
2022-08-22T11:01:42.299Z,21.21
2022-08-22T11:04:33.148Z,20.77
2022-08-22T11:07:06.279Z,20.16
2022-08-22T11:09:45.219Z,19.94
2022-08-22T11:12:15.134Z,20.46
2022-08-22T11:15:15.507Z,20.58
2022-08-22T11:18:13.090Z,20.37
2022-08-22T11:20:47.843Z,19.52
2022-08-22T11:23:26.011Z,20.06
2022-08-22T11:25:54.104Z,19.61
2022-08-22T11:28:36.083Z,20.34
2022-08-22T11:31:03.769Z,21.56
2022-08-22T11:33:47.430Z,21.51
2022-08-22T11:36:33.529Z,21.21
2022-08-22T11:39:03.339Z,20.79
2022-08-22T11:41:32.762Z,20.96
2022-08-22T11:44:20.143Z,21.43
2022-08-22T11:46:51.193Z,21.61
2022-08-22T11:49:36.354Z,21.75
2022-08-22T11:52:11.421Z,22.02
2022-08-22T11:54:46.527Z,22.32
2022-08-22T11:57:27.862Z,23.23
2022-08-22T12:00:27.294Z,23.60
2022-08-22T12:03:08.401Z,24.51
2022-08-22T12:05:54.075Z,24.37
2022-08-22T12:08:31.127Z,24.59
2022-08-22T12:11:01.396Z,24.58
2022-08-22T12:13:38.882Z,24.92
2022-08-22T12:16:27.124Z,25.05
2022-08-22T12:19:22.876Z,25.18
2022-08-22T12:22:07.697Z,25.23
2022-08-22T12:29:00.794Z,25.95
2022-08-22T12:31:35.080Z,25.41
2022-08-22T12:34:15.534Z,25.21
2022-08-22T12:36:51.224Z,25.27
2022-08-22T12:39:34.420Z,25.88
2022-08-22T12:42:04.254Z,25.85
2022-08-22T12:45:20.381Z,25.73
2022-08-22T12:48:16.792Z,26.01
2022-08-22T12:50:54.283Z,26.29
2022-08-22T12:59:44.484Z,26.55
2022-08-22T13:02:34.006Z,26.79
2022-08-22T13:05:11.046Z,27.13
2022-08-22T13:07:40.772Z,27.44
2022-08-22T13:10:20.072Z,27.23
2022-08-22T13:12:49.557Z,27.37
2022-08-22T13:15:36.194Z,27.27
2022-08-22T13:18:29.610Z,27.13
2022-08-22T13:21:05.211Z,27.29
2022-08-22T13:23:34.369Z,27.30
2022-08-22T13:26:43.307Z,27.45
2022-08-22T13:29:39.614Z,27.69
2022-08-22T13:32:23.442Z,27.69
2022-08-22T13:34:56.629Z,27.99
2022-08-22T13:37:33.660Z,28.46
2022-08-22T13:40:08.394Z,28.29
2022-08-22T13:42:39.990Z,28.20
2022-08-22T13:45:14.958Z,28.12
2022-08-22T13:47:53.726Z,28.28
2022-08-22T13:50:30.066Z,28.04
2022-08-22T13:54:00.594Z,27.91
2022-08-22T13:56:55.469Z,27.78
2022-08-22T14:00:28.698Z,28.17
2022-08-22T14:03:28.443Z,28.34
2022-08-22T15:25:23.199Z,28.78
2022-08-22T15:28:06.991Z,28.75
2022-08-22T15:33:34.930Z,28.52
2022-08-22T15:36:15.862Z,28.70
2022-08-22T15:38:53.168Z,28.50
2022-08-22T15:41:31.556Z,28.64
2022-08-22T15:44:03.830Z,28.89
2022-08-22T15:46:32.337Z,29.27
2022-08-22T15:49:26.088Z,29.40
2022-08-22T15:52:00.726Z,29.31
2022-08-22T15:54:57.021Z,29.58
2022-08-22T15:57:26.348Z,29.12
2022-08-22T16:00:05.179Z,29.28
2022-08-22T16:02:42.018Z,29.60
2022-08-22T16:05:11.691Z,29.34
2022-08-22T16:07:44.856Z,29.43
2022-08-22T16:10:24.229Z,29.71
2022-08-22T16:13:24.518Z,29.61
2022-08-22T16:15:57.168Z,29.81
2022-08-22T16:18:51.363Z,29.79
2022-08-22T16:21:26.922Z,29.96
2022-08-22T16:26:57.697Z,30.02
2022-08-22T16:29:41.288Z,29.90
2022-08-22T16:32:12.424Z,30.08
2022-08-22T16:46:42.037Z,31.36
2022-08-22T16:55:43.731Z,32.18
2022-08-22T16:58:57.523Z,32.09
2022-08-22T17:01:38.313Z,32.51
2022-08-22T17:10:12.393Z,32.92
2022-08-22T17:12:54.142Z,33.20
2022-08-22T17:31:27.371Z,34.20
2022-08-22T17:37:40.468Z,34.34
2022-08-22T17:46:03.644Z,34.95
2022-08-22T18:02:32.482Z,35.35
2022-08-22T18:05:04.015Z,35.68
2022-08-22T18:07:54.647Z,35.79
2022-08-22T18:11:02.706Z,35.79
2022-08-22T18:14:05.001Z,35.68
2022-08-22T18:16:41.029Z,35.88
2022-08-22T18:19:25.505Z,36.07
2022-08-22T18:29:05.296Z,36.42
2022-08-22T18:34:59.169Z,36.98
2022-08-22T18:41:19.926Z,37.33
2022-08-22T18:43:48.467Z,37.63
2022-08-22T18:55:53.471Z,38.37
2022-08-22T19:05:33.104Z,38.75
2022-08-22T19:08:28.820Z,38.75
2022-08-22T19:11:16.223Z,38.74
2022-08-22T19:16:47.160Z,38.92
2022-08-22T19:33:48.121Z,39.50
2022-08-22T19:36:36.882Z,39.72
2022-08-22T19:39:32.669Z,39.92
2022-08-22T19:42:04.351Z,40.11
2022-08-22T19:44:40.989Z,40.21
2022-08-22T19:47:11.595Z,40.52
2022-08-22T19:50:05.419Z,40.71
2022-08-22T19:52:47.219Z,40.52
2022-08-22T19:55:23.282Z,40.71
2022-08-22T20:06:40.833Z,41.05
2022-08-22T20:09:07.769Z,41.10
2022-08-22T20:12:01.660Z,41.15
2022-08-22T20:14:35.189Z,41.39
2022-08-22T20:17:20.467Z,41.14
2022-08-22T20:22:38.956Z,41.47
2022-08-22T20:25:42.291Z,41.34
2022-08-22T20:28:05.297Z,41.23
2022-08-22T20:30:52.043Z,41.38
2022-08-22T20:33:25.322Z,41.44
2022-08-22T20:35:59.647Z,41.45
2022-08-22T20:38:40.185Z,41.71
2022-08-22T20:41:37.614Z,41.85
2022-08-22T20:44:04.673Z,41.85
2022-08-22T20:46:33.326Z,41.90
2022-08-22T20:49:00.685Z,42.00
2022-08-22T20:51:30.368Z,42.18
2022-08-22T20:53:58.665Z,42.01
2022-08-22T20:56:35.800Z,42.00
2022-08-22T20:59:23.284Z,42.15
2022-08-22T21:01:57.955Z,42.04
2022-08-22T21:04:26.016Z,42.57
2022-08-22T21:06:59.134Z,42.53
2022-08-22T21:09:44.691Z,42.54
2022-08-22T21:12:11.877Z,42.87
2022-08-22T21:14:46.282Z,43.05
2022-08-22T21:17:17.642Z,43.19
2022-08-22T21:19:44.607Z,43.58
2022-08-22T21:22:20.063Z,44.00
2022-08-22T21:24:49.878Z,44.16
2022-08-22T21:27:19.267Z,44.30
2022-08-22T21:29:46.319Z,44.62
2022-08-22T21:32:27.383Z,44.64
2022-08-22T21:34:54.616Z,44.96
2022-08-22T21:37:37.990Z,45.00
2022-08-22T21:40:08.308Z,45.10
2022-08-22T21:42:43.736Z,45.05
2022-08-22T21:45:25.893Z,45.10
2022-08-22T21:47:53.174Z,45.16
2022-08-22T21:50:25.471Z,45.19
2022-08-22T21:52:54.986Z,45.35
2022-08-22T21:55:21.891Z,45.40
2022-08-22T21:57:53.120Z,45.57
2022-08-22T22:00:38.966Z,45.39
2022-08-22T22:03:07.412Z,45.45
2022-08-22T22:05:34.342Z,45.49
2022-08-22T22:08:01.431Z,45.74
2022-08-22T22:10:28.582Z,45.89
2022-08-22T22:12:56.480Z,46.13
2022-08-22T22:15:24.365Z,46.13
2022-08-22T22:17:51.316Z,46.16
2022-08-22T22:20:18.974Z,46.40
2022-08-22T22:22:54.457Z,46.50
2022-08-22T22:25:40.998Z,46.49
2022-08-22T22:28:17.028Z,46.56
2022-08-22T22:30:44.326Z,46.72
2022-08-22T22:33:11.371Z,46.92
2022-08-22T22:35:39.288Z,46.70
2022-08-22T22:38:06.687Z,46.83
2022-08-22T22:40:33.846Z,47.06
2022-08-22T22:43:01.063Z,47.19
2022-08-22T22:45:27.982Z,47.36
2022-08-22T22:47:54.959Z,47.41
2022-08-22T22:50:21.903Z,47.39
2022-08-22T22:52:51.526Z,47.47
2022-08-22T22:55:24.175Z,47.67
2022-08-22T22:58:03.182Z,47.79
2022-08-22T23:00:31.504Z,47.66
2022-08-22T23:02:59.424Z,47.69
2022-08-22T23:05:26.317Z,48.06
2022-08-22T23:07:53.189Z,48.48
2022-08-22T23:10:22.186Z,48.42
2022-08-22T23:12:49.331Z,48.27
2022-08-22T23:15:16.888Z,48.51
2022-08-22T23:17:43.942Z,48.42
2022-08-22T23:20:11.048Z,48.54
2022-08-22T23:22:40.678Z,48.55
2022-08-22T23:25:07.676Z,48.66
2022-08-22T23:27:34.755Z,48.73
2022-08-22T23:30:02.501Z,48.75
2022-08-22T23:32:31.393Z,48.83
2022-08-22T23:34:58.484Z,49.00
2022-08-22T23:37:25.390Z,49.08
2022-08-22T23:39:52.603Z,49.03
2022-08-22T23:42:19.603Z,48.95
2022-08-22T23:44:46.580Z,49.18
2022-08-22T23:47:14.051Z,49.11
2022-08-22T23:49:41.492Z,49.39
2022-08-22T23:52:08.812Z,49.36
2022-08-22T23:54:35.872Z,49.31
2022-08-22T23:57:03.526Z,49.52
2022-08-22T23:59:42.338Z,49.60
